sensor_id;sensor_type;location;lat;lon;timestamp;pressure;altitude;pressure_sealevel;temperature;humidity
33414;BME280;60055;41.884;12.534;2023-11-18T00:00:15;101147.63;;;13.83;62.30
33414;BME280;60055;41.884;12.534;2023-11-18T00:02:42;101149.63;;;13.78;62.24
33414;BME280;60055;41.884;12.534;2023-11-18T00:05:09;101149.75;;;13.75;62.82
33414;BME280;60055;41.884;12.534;2023-11-18T00:07:34;101147.44;;;13.88;62.47
33414;BME280;60055;41.884;12.534;2023-11-18T00:10:00;101155.47;;;13.86;63.05
33414;BME280;60055;41.884;12.534;2023-11-18T00:12:25;101159.63;;;13.71;62.75
33414;BME280;60055;41.884;12.534;2023-11-18T00:14:51;101146.75;;;13.62;63.19
33414;BME280;60055;41.884;12.534;2023-11-18T00:17:16;101152.25;;;13.36;63.39
33414;BME280;60055;41.884;12.534;2023-11-18T00:19:42;101151.31;;;13.15;63.81
33414;BME280;60055;41.884;12.534;2023-11-18T00:22:08;101150.84;;;13.27;64.09
33414;BME280;60055;41.884;12.534;2023-11-18T00:24:33;101154.03;;;13.36;64.11
33414;BME280;60055;41.884;12.534;2023-11-18T00:27:02;101161.94;;;13.15;63.80
33414;BME280;60055;41.884;12.534;2023-11-18T00:29:33;101161.69;;;13.21;64.16
33414;BME280;60055;41.884;12.534;2023-11-18T00:32:00;101161.75;;;13.20;63.33
33414;BME280;60055;41.884;12.534;2023-11-18T00:34:25;101159.56;;;13.08;64.00
33414;BME280;60055;41.884;12.534;2023-11-18T00:36:51;101160.53;;;13.05;64.10
33414;BME280;60055;41.884;12.534;2023-11-18T00:39:17;101171.91;;;13.09;64.28
33414;BME280;60055;41.884;12.534;2023-11-18T00:41:43;101174.75;;;13.04;64.21
33414;BME280;60055;41.884;12.534;2023-11-18T00:44:09;101166.34;;;12.93;64.74
33414;BME280;60055;41.884;12.534;2023-11-18T00:46:35;101167.88;;;12.75;64.93
33414;BME280;60055;41.884;12.534;2023-11-18T00:49:02;101174.66;;;12.84;65.06
33414;BME280;60055;41.884;12.534;2023-11-18T00:51:28;101179.94;;;12.84;65.09
33414;BME280;60055;41.884;12.534;2023-11-18T00:53:54;101177.72;;;12.95;64.55
33414;BME280;60055;41.884;12.534;2023-11-18T00:56:20;101188.78;;;13.06;63.90
33414;BME280;60055;41.884;12.534;2023-11-18T00:58:49;101186.31;;;13.02;63.60
33414;BME280;60055;41.884;12.534;2023-11-18T01:01:15;101191.69;;;13.00;63.55
33414;BME280;60055;41.884;12.534;2023-11-18T01:03:45;101205.47;;;13.08;63.67
33414;BME280;60055;41.884;12.534;2023-11-18T01:06:11;101194.88;;;13.10;63.48
33414;BME280;60055;41.884;12.534;2023-11-18T01:08:37;101209.91;;;13.09;63.84
33414;BME280;60055;41.884;12.534;2023-11-18T01:11:03;101204.25;;;13.18;62.91
33414;BME280;60055;41.884;12.534;2023-11-18T01:13:32;101206.25;;;13.12;62.95
33414;BME280;60055;41.884;12.534;2023-11-18T01:15:57;101208.91;;;12.89;64.18
33414;BME280;60055;41.884;12.534;2023-11-18T01:18:23;101213.72;;;12.77;64.30
33414;BME280;60055;41.884;12.534;2023-11-18T01:20:48;101214.91;;;12.94;64.42
33414;BME280;60055;41.884;12.534;2023-11-18T01:23:14;101219.81;;;13.04;64.23
33414;BME280;60055;41.884;12.534;2023-11-18T01:25:39;101220.88;;;12.99;62.99
33414;BME280;60055;41.884;12.534;2023-11-18T01:28:05;101213.44;;;12.85;62.76
33414;BME280;60055;41.884;12.534;2023-11-18T01:30:31;101215.53;;;12.77;62.39
33414;BME280;60055;41.884;12.534;2023-11-18T01:32:58;101216.47;;;12.76;63.23
33414;BME280;60055;41.884;12.534;2023-11-18T01:35:29;101216.47;;;12.76;62.53
33414;BME280;60055;41.884;12.534;2023-11-18T01:37:54;101218.97;;;12.56;62.56
33414;BME280;60055;41.884;12.534;2023-11-18T01:40:20;101221.50;;;12.59;62.44
33414;BME280;60055;41.884;12.534;2023-11-18T01:42:46;101222.59;;;12.53;62.63
33414;BME280;60055;41.884;12.534;2023-11-18T01:45:12;101234.72;;;12.60;62.22
33414;BME280;60055;41.884;12.534;2023-11-18T01:47:39;101234.22;;;12.74;62.54
33414;BME280;60055;41.884;12.534;2023-11-18T01:50:07;101237.03;;;12.69;61.37
33414;BME280;60055;41.884;12.534;2023-11-18T01:52:34;101248.78;;;12.61;61.83
33414;BME280;60055;41.884;12.534;2023-11-18T01:55:01;101251.41;;;12.62;61.84
33414;BME280;60055;41.884;12.534;2023-11-18T01:57:34;101257.22;;;12.47;61.33
33414;BME280;60055;41.884;12.534;2023-11-18T02:00:00;101258.63;;;12.57;61.38
33414;BME280;60055;41.884;12.534;2023-11-18T02:02:31;101269.16;;;12.60;61.16
33414;BME280;60055;41.884;12.534;2023-11-18T02:04:58;101273.22;;;12.70;61.50
33414;BME280;60055;41.884;12.534;2023-11-18T02:07:24;101269.81;;;12.67;61.82
33414;BME280;60055;41.884;12.534;2023-11-18T02:09:49;101267.94;;;12.69;61.38
33414;BME280;60055;41.884;12.534;2023-11-18T02:15:05;101269.31;;;12.56;62.47
33414;BME280;60055;41.884;12.534;2023-11-18T02:17:38;101273.81;;;12.54;61.99
33414;BME280;60055;41.884;12.534;2023-11-18T02:20:05;101281.16;;;12.46;62.15
33414;BME280;60055;41.884;12.534;2023-11-18T02:22:42;101286.00;;;12.58;61.76
33414;BME280;60055;41.884;12.534;2023-11-18T02:25:09;101293.00;;;12.60;61.88
33414;BME280;60055;41.884;12.534;2023-11-18T02:27:37;101291.63;;;12.49;61.61
33414;BME280;60055;41.884;12.534;2023-11-18T02:30:03;101295.00;;;12.54;61.46
33414;BME280;60055;41.884;12.534;2023-11-18T02:32:37;101301.22;;;12.53;61.81
33414;BME280;60055;41.884;12.534;2023-11-18T02:35:20;101306.53;;;12.51;61.99
33414;BME280;60055;41.884;12.534;2023-11-18T02:37:50;101300.59;;;12.45;61.69
33414;BME280;60055;41.884;12.534;2023-11-18T02:40:43;101306.63;;;12.50;61.58
33414;BME280;60055;41.884;12.534;2023-11-18T02:43:09;101306.31;;;12.57;61.45
33414;BME280;60055;41.884;12.534;2023-11-18T02:45:36;101303.41;;;12.40;61.38
33414;BME280;60055;41.884;12.534;2023-11-18T02:48:03;101312.03;;;12.47;63.31
33414;BME280;60055;41.884;12.534;2023-11-18T02:50:31;101313.94;;;12.42;62.24
33414;BME280;60055;41.884;12.534;2023-11-18T02:52:57;101319.78;;;12.26;62.05
33414;BME280;60055;41.884;12.534;2023-11-18T02:55:22;101323.47;;;11.95;63.46
33414;BME280;60055;41.884;12.534;2023-11-18T02:57:49;101320.03;;;11.91;63.06
33414;BME280;60055;41.884;12.534;2023-11-18T03:00:17;101322.72;;;11.90;63.22
33414;BME280;60055;41.884;12.534;2023-11-18T03:02:46;101330.88;;;11.84;63.83
33414;BME280;60055;41.884;12.534;2023-11-18T03:05:12;101313.50;;;11.75;64.01
33414;BME280;60055;41.884;12.534;2023-11-18T03:07:38;101323.09;;;11.79;64.64
33414;BME280;60055;41.884;12.534;2023-11-18T03:10:04;101326.66;;;11.78;64.19
33414;BME280;60055;41.884;12.534;2023-11-18T03:12:36;101330.41;;;11.69;64.95
33414;BME280;60055;41.884;12.534;2023-11-18T03:15:01;101336.50;;;11.73;64.33
33414;BME280;60055;41.884;12.534;2023-11-18T03:17:28;101335.66;;;11.72;64.50
33414;BME280;60055;41.884;12.534;2023-11-18T03:19:53;101332.81;;;11.78;64.07
33414;BME280;60055;41.884;12.534;2023-11-18T03:22:19;101337.44;;;11.72;63.97
33414;BME280;60055;41.884;12.534;2023-11-18T03:24:44;101342.94;;;11.63;63.73
33414;BME280;60055;41.884;12.534;2023-11-18T03:27:10;101337.72;;;11.61;63.43
33414;BME280;60055;41.884;12.534;2023-11-18T03:29:35;101341.38;;;11.57;63.80
33414;BME280;60055;41.884;12.534;2023-11-18T03:32:01;101341.38;;;11.57;63.36
33414;BME280;60055;41.884;12.534;2023-11-18T03:34:27;101341.13;;;11.65;63.61
33414;BME280;60055;41.884;12.534;2023-11-18T03:36:52;101347.13;;;11.71;63.25
33414;BME280;60055;41.884;12.534;2023-11-18T03:39:18;101346.06;;;11.77;62.95
33414;BME280;60055;41.884;12.534;2023-11-18T03:41:43;101358.09;;;11.87;63.15
33414;BME280;60055;41.884;12.534;2023-11-18T03:44:12;101362.50;;;11.88;62.66
33414;BME280;60055;41.884;12.534;2023-11-18T03:46:37;101371.88;;;11.98;62.82
33414;BME280;60055;41.884;12.534;2023-11-18T03:49:03;101374.84;;;11.88;64.07
33414;BME280;60055;41.884;12.534;2023-11-18T03:51:29;101372.34;;;11.83;63.33
33414;BME280;60055;41.884;12.534;2023-11-18T03:53:54;101370.44;;;11.88;63.48
33414;BME280;60055;41.884;12.534;2023-11-18T03:56:20;101376.91;;;11.78;64.22
33414;BME280;60055;41.884;12.534;2023-11-18T03:58:46;101381.03;;;11.87;63.81
33414;BME280;60055;41.884;12.534;2023-11-18T04:01:25;101386.34;;;11.56;64.38
33414;BME280;60055;41.884;12.534;2023-11-18T04:03:53;101395.81;;;11.64;64.39
33414;BME280;60055;41.884;12.534;2023-11-18T04:06:20;101392.31;;;11.64;63.85
33414;BME280;60055;41.884;12.534;2023-11-18T04:08:46;101398.50;;;11.63;63.85
33414;BME280;60055;41.884;12.534;2023-11-18T04:11:13;101413.22;;;11.73;63.96
33414;BME280;60055;41.884;12.534;2023-11-18T04:13:42;101406.41;;;11.64;63.83
33414;BME280;60055;41.884;12.534;2023-11-18T04:16:15;101409.31;;;11.86;63.22
33414;BME280;60055;41.884;12.534;2023-11-18T04:18:42;101416.13;;;11.93;62.31
33414;BME280;60055;41.884;12.534;2023-11-18T04:21:08;101417.69;;;12.00;62.40
33414;BME280;60055;41.884;12.534;2023-11-18T04:23:37;101428.56;;;11.91;63.12
33414;BME280;60055;41.884;12.534;2023-11-18T04:26:03;101427.34;;;12.01;62.41
33414;BME280;60055;41.884;12.534;2023-11-18T04:28:29;101431.69;;;12.04;62.68
33414;BME280;60055;41.884;12.534;2023-11-18T04:30:55;101429.69;;;12.12;63.18
33414;BME280;60055;41.884;12.534;2023-11-18T04:33:20;101432.53;;;12.06;62.93
33414;BME280;60055;41.884;12.534;2023-11-18T04:35:46;101438.84;;;12.29;62.17
33414;BME280;60055;41.884;12.534;2023-11-18T04:38:12;101439.50;;;12.36;62.58
33414;BME280;60055;41.884;12.534;2023-11-18T04:40:37;101444.16;;;12.56;63.09
33414;BME280;60055;41.884;12.534;2023-11-18T04:43:04;101441.88;;;12.44;60.22
33414;BME280;60055;41.884;12.534;2023-11-18T04:45:30;101457.03;;;12.40;60.74
33414;BME280;60055;41.884;12.534;2023-11-18T04:47:56;101449.56;;;12.53;60.59
33414;BME280;60055;41.884;12.534;2023-11-18T04:50:21;101451.22;;;12.55;60.54
33414;BME280;60055;41.884;12.534;2023-11-18T04:52:47;101451.28;;;12.54;60.25
33414;BME280;60055;41.884;12.534;2023-11-18T04:55:12;101450.53;;;12.22;61.05
33414;BME280;60055;41.884;12.534;2023-11-18T04:57:38;101458.38;;;12.25;60.78
33414;BME280;60055;41.884;12.534;2023-11-18T05:00:05;101458.56;;;12.19;61.81
33414;BME280;60055;41.884;12.534;2023-11-18T05:02:38;101451.16;;;12.03;61.50
33414;BME280;60055;41.884;12.534;2023-11-18T05:05:04;101461.13;;;11.93;61.29
33414;BME280;60055;41.884;12.534;2023-11-18T05:07:32;101457.63;;;11.93;61.38
33414;BME280;60055;41.884;12.534;2023-11-18T05:09:58;101463.16;;;11.85;61.40
33414;BME280;60055;41.884;12.534;2023-11-18T05:12:24;101471.66;;;11.96;61.55
33414;BME280;60055;41.884;12.534;2023-11-18T05:14:49;101475.69;;;11.78;61.89
33414;BME280;60055;41.884;12.534;2023-11-18T05:17:15;101475.06;;;11.69;62.33
33414;BME280;60055;41.884;12.534;2023-11-18T05:19:41;101474.22;;;11.67;62.38
33414;BME280;60055;41.884;12.534;2023-11-18T05:22:08;101476.94;;;11.64;62.60
33414;BME280;60055;41.884;12.534;2023-11-18T05:24:34;101470.66;;;11.68;62.49
33414;BME280;60055;41.884;12.534;2023-11-18T05:26:59;101475.97;;;11.68;64.62
33414;BME280;60055;41.884;12.534;2023-11-18T05:29:28;101482.44;;;11.56;62.87
33414;BME280;60055;41.884;12.534;2023-11-18T05:31:54;101488.16;;;11.73;62.69
33414;BME280;60055;41.884;12.534;2023-11-18T05:34:22;101479.31;;;11.76;62.68
33414;BME280;60055;41.884;12.534;2023-11-18T05:36:48;101495.09;;;11.79;62.08
33414;BME280;60055;41.884;12.534;2023-11-18T05:39:16;101496.69;;;11.83;62.06
33414;BME280;60055;41.884;12.534;2023-11-18T05:41:42;101499.63;;;11.74;62.45
33414;BME280;60055;41.884;12.534;2023-11-18T05:44:11;101497.06;;;11.71;61.97
33414;BME280;60055;41.884;12.534;2023-11-18T05:46:43;101489.47;;;11.59;62.97
33414;BME280;60055;41.884;12.534;2023-11-18T05:49:12;101496.75;;;11.49;62.78
33414;BME280;60055;41.884;12.534;2023-11-18T05:51:39;101508.47;;;11.41;63.64
33414;BME280;60055;41.884;12.534;2023-11-18T05:54:06;101505.69;;;11.45;63.39
33414;BME280;60055;41.884;12.534;2023-11-18T05:56:32;101517.19;;;11.44;63.45
33414;BME280;60055;41.884;12.534;2023-11-18T05:58:58;101511.88;;;11.44;63.43
33414;BME280;60055;41.884;12.534;2023-11-18T06:01:25;101507.50;;;11.43;63.57
33414;BME280;60055;41.884;12.534;2023-11-18T06:03:53;101519.66;;;11.50;63.10
33414;BME280;60055;41.884;12.534;2023-11-18T06:06:18;101522.47;;;11.44;63.76
33414;BME280;60055;41.884;12.534;2023-11-18T06:08:45;101534.63;;;11.51;62.96
33414;BME280;60055;41.884;12.534;2023-11-18T06:11:12;101541.56;;;11.55;62.82
33414;BME280;60055;41.884;12.534;2023-11-18T06:16:22;101543.28;;;11.24;64.11
33414;BME280;60055;41.884;12.534;2023-11-18T06:18:49;101546.28;;;11.44;63.88
33414;BME280;60055;41.884;12.534;2023-11-18T06:21:17;101549.28;;;11.63;63.48
33414;BME280;60055;41.884;12.534;2023-11-18T06:23:44;101550.50;;;11.84;63.87
33414;BME280;60055;41.884;12.534;2023-11-18T06:26:11;101553.59;;;11.99;62.06
33414;BME280;60055;41.884;12.534;2023-11-18T06:28:41;101558.94;;;11.98;61.98
33414;BME280;60055;41.884;12.534;2023-11-18T06:31:07;101561.63;;;11.96;61.66
33414;BME280;60055;41.884;12.534;2023-11-18T06:33:44;101568.44;;;12.05;62.27
33414;BME280;60055;41.884;12.534;2023-11-18T06:36:17;101567.53;;;12.06;62.00
33414;BME280;60055;41.884;12.534;2023-11-18T06:38:44;101568.59;;;11.99;60.92
33414;BME280;60055;41.884;12.534;2023-11-18T06:41:10;101575.06;;;11.89;61.58
33414;BME280;60055;41.884;12.534;2023-11-18T06:43:41;101574.69;;;12.02;60.96
33414;BME280;60055;41.884;12.534;2023-11-18T06:46:23;101575.69;;;11.98;60.73
33414;BME280;60055;41.884;12.534;2023-11-18T06:48:53;101584.59;;;11.94;61.28
33414;BME280;60055;41.884;12.534;2023-11-18T06:51:29;101589.03;;;12.24;64.74
33414;BME280;60055;41.884;12.534;2023-11-18T06:53:55;101586.88;;;12.08;61.13
33414;BME280;60055;41.884;12.534;2023-11-18T06:56:21;101590.34;;;12.10;60.76
33414;BME280;60055;41.884;12.534;2023-11-18T06:58:46;101598.59;;;11.99;61.01
33414;BME280;60055;41.884;12.534;2023-11-18T07:01:13;101599.59;;;12.26;63.90
33414;BME280;60055;41.884;12.534;2023-11-18T07:03:41;101599.91;;;12.15;60.87
33414;BME280;60055;41.884;12.534;2023-11-18T07:06:07;101595.09;;;11.97;61.18
33414;BME280;60055;41.884;12.534;2023-11-18T07:08:32;101597.28;;;12.14;61.30
33414;BME280;60055;41.884;12.534;2023-11-18T07:11:00;101605.81;;;12.23;62.94
33414;BME280;60055;41.884;12.534;2023-11-18T07:13:27;101601.59;;;12.47;62.66
33414;BME280;60055;41.884;12.534;2023-11-18T07:15:53;101611.13;;;12.82;63.23
33414;BME280;60055;41.884;12.534;2023-11-18T07:18:19;101610.34;;;12.78;62.41
33414;BME280;60055;41.884;12.534;2023-11-18T07:20:48;101614.97;;;12.72;60.24
33414;BME280;60055;41.884;12.534;2023-11-18T07:23:14;101618.38;;;12.77;59.79
33414;BME280;60055;41.884;12.534;2023-11-18T07:25:39;101626.25;;;13.06;58.94
33414;BME280;60055;41.884;12.534;2023-11-18T07:28:05;101620.22;;;13.01;58.52
33414;BME280;60055;41.884;12.534;2023-11-18T07:30:30;101618.88;;;12.88;58.16
33414;BME280;60055;41.884;12.534;2023-11-18T07:32:56;101619.91;;;12.84;58.71
33414;BME280;60055;41.884;12.534;2023-11-18T07:35:25;101619.97;;;12.81;58.23
33414;BME280;60055;41.884;12.534;2023-11-18T07:37:52;101620.47;;;13.21;58.85
33414;BME280;60055;41.884;12.534;2023-11-18T07:40:18;101616.88;;;13.24;55.90
33414;BME280;60055;41.884;12.534;2023-11-18T07:42:55;101630.47;;;13.41;55.87
33414;BME280;60055;41.884;12.534;2023-11-18T07:45:21;101638.44;;;13.66;55.47
33414;BME280;60055;41.884;12.534;2023-11-18T07:47:49;101636.72;;;13.65;54.32
33414;BME280;60055;41.884;12.534;2023-11-18T07:50:19;101635.03;;;13.62;54.25
33414;BME280;60055;41.884;12.534;2023-11-18T07:52:46;101631.91;;;13.76;53.38
33414;BME280;60055;41.884;12.534;2023-11-18T07:55:13;101644.69;;;13.90;53.95
33414;BME280;60055;41.884;12.534;2023-11-18T07:57:39;101646.31;;;13.94;53.22
33414;BME280;60055;41.884;12.534;2023-11-18T08:00:05;101655.06;;;13.97;52.55
33414;BME280;60055;41.884;12.534;2023-11-18T08:02:35;101656.84;;;14.21;52.67
33414;BME280;60055;41.884;12.534;2023-11-18T08:05:01;101661.41;;;14.18;51.86
33414;BME280;60055;41.884;12.534;2023-11-18T08:07:28;101664.81;;;14.69;51.32
33414;BME280;60055;41.884;12.534;2023-11-18T08:09:53;101666.66;;;14.67;51.57
33414;BME280;60055;41.884;12.534;2023-11-18T08:12:19;101670.91;;;14.73;50.20
33414;BME280;60055;41.884;12.534;2023-11-18T08:14:45;101667.28;;;14.74;49.93
33414;BME280;60055;41.884;12.534;2023-11-18T08:17:12;101677.09;;;14.73;50.18
33414;BME280;60055;41.884;12.534;2023-11-18T08:19:38;101677.09;;;14.73;50.44
33414;BME280;60055;41.884;12.534;2023-11-18T08:22:04;101676.94;;;15.00;49.47
33414;BME280;60055;41.884;12.534;2023-11-18T08:24:31;101675.91;;;15.04;49.86
33414;BME280;60055;41.884;12.534;2023-11-18T08:26:58;101671.06;;;15.13;49.05
33414;BME280;60055;41.884;12.534;2023-11-18T08:29:24;101677.44;;;15.09;49.04
33414;BME280;60055;41.884;12.534;2023-11-18T08:31:53;101678.19;;;15.34;49.60
33414;BME280;60055;41.884;12.534;2023-11-18T08:34:19;101682.97;;;15.26;49.04
33414;BME280;60055;41.884;12.534;2023-11-18T08:36:44;101680.81;;;15.58;50.55
33414;BME280;60055;41.884;12.534;2023-11-18T08:39:09;101676.50;;;14.65;49.56
33414;BME280;60055;41.884;12.534;2023-11-18T08:41:36;101671.13;;;14.19;50.40
33414;BME280;60055;41.884;12.534;2023-11-18T08:44:01;101668.25;;;14.23;51.06
33414;BME280;60055;41.884;12.534;2023-11-18T08:46:27;101662.91;;;14.73;50.43
33414;BME280;60055;41.884;12.534;2023-11-18T08:48:52;101658.06;;;14.61;50.32
33414;BME280;60055;41.884;12.534;2023-11-18T08:51:20;101658.56;;;14.94;51.02
33414;BME280;60055;41.884;12.534;2023-11-18T08:53:46;101670.19;;;15.34;49.39
33414;BME280;60055;41.884;12.534;2023-11-18T08:56:13;101673.88;;;15.54;47.74
33414;BME280;60055;41.884;12.534;2023-11-18T08:58:43;101666.69;;;15.34;47.58
33414;BME280;60055;41.884;12.534;2023-11-18T09:01:10;101674.56;;;15.37;47.47
33414;BME280;60055;41.884;12.534;2023-11-18T09:03:39;101681.84;;;14.87;48.49
33414;BME280;60055;41.884;12.534;2023-11-18T09:06:09;101680.22;;;15.06;47.94
33414;BME280;60055;41.884;12.534;2023-11-18T09:08:50;101682.81;;;15.08;47.96
33414;BME280;60055;41.884;12.534;2023-11-18T09:11:20;101682.31;;;15.42;48.42
33414;BME280;60055;41.884;12.534;2023-11-18T09:13:48;101682.53;;;15.59;47.84
33414;BME280;60055;41.884;12.534;2023-11-18T09:16:15;101678.38;;;15.73;47.60
33414;BME280;60055;41.884;12.534;2023-11-18T09:18:43;101686.97;;;15.80;47.53
33414;BME280;60055;41.884;12.534;2023-11-18T09:21:12;101707.56;;;16.17;47.67
33414;BME280;60055;41.884;12.534;2023-11-18T09:23:44;101707.75;;;15.50;46.46
33414;BME280;60055;41.884;12.534;2023-11-18T09:26:13;101710.94;;;15.58;47.80
33414;BME280;60055;41.884;12.534;2023-11-18T09:28:40;101713.16;;;15.91;48.69
33414;BME280;60055;41.884;12.534;2023-11-18T09:31:06;101709.19;;;15.79;45.48
33414;BME280;60055;41.884;12.534;2023-11-18T09:33:36;101711.47;;;15.68;46.65
33414;BME280;60055;41.884;12.534;2023-11-18T09:36:08;101707.38;;;15.59;45.95
33414;BME280;60055;41.884;12.534;2023-11-18T09:38:39;101722.28;;;15.63;47.49
33414;BME280;60055;41.884;12.534;2023-11-18T09:41:09;101715.03;;;15.67;46.67
33414;BME280;60055;41.884;12.534;2023-11-18T09:43:45;101708.81;;;15.45;47.29
33414;BME280;60055;41.884;12.534;2023-11-18T09:46:14;101711.59;;;15.20;47.63
33414;BME280;60055;41.884;12.534;2023-11-18T09:48:47;101710.81;;;15.40;47.20
33414;BME280;60055;41.884;12.534;2023-11-18T09:51:23;101710.09;;;15.58;47.26
33414;BME280;60055;41.884;12.534;2023-11-18T09:53:53;101705.22;;;15.89;46.96
33414;BME280;60055;41.884;12.534;2023-11-18T09:56:23;101716.25;;;15.80;47.60
33414;BME280;60055;41.884;12.534;2023-11-18T09:59:10;101714.09;;;16.10;45.61
33414;BME280;60055;41.884;12.534;2023-11-18T10:01:42;101710.50;;;16.31;46.47
33414;BME280;60055;41.884;12.534;2023-11-18T10:04:09;101718.31;;;15.95;44.06
33414;BME280;60055;41.884;12.534;2023-11-18T10:06:36;101716.91;;;15.85;44.96
33414;BME280;60055;41.884;12.534;2023-11-18T10:09:06;101716.75;;;15.90;44.44
33414;BME280;60055;41.884;12.534;2023-11-18T10:11:47;101714.06;;;15.90;43.88
33414;BME280;60055;41.884;12.534;2023-11-18T10:14:15;101725.66;;;15.89;45.29
33414;BME280;60055;41.884;12.534;2023-11-18T10:16:44;101720.09;;;15.95;44.22
33414;BME280;60055;41.884;12.534;2023-11-18T10:19:12;101708.44;;;15.97;43.84
33414;BME280;60055;41.884;12.534;2023-11-18T10:21:38;101708.00;;;15.86;42.93
33414;BME280;60055;41.884;12.534;2023-11-18T10:24:08;101701.94;;;15.82;42.62
33414;BME280;60055;41.884;12.534;2023-11-18T10:26:53;101703.34;;;15.71;41.78
33414;BME280;60055;41.884;12.534;2023-11-18T10:29:24;101696.56;;;15.84;40.78
33414;BME280;60055;41.884;12.534;2023-11-18T10:32:07;101687.97;;;15.77;42.85
33414;BME280;60055;41.884;12.534;2023-11-18T10:34:35;101697.69;;;15.99;43.08
33414;BME280;60055;41.884;12.534;2023-11-18T10:37:04;101685.97;;;16.03;42.33
33414;BME280;60055;41.884;12.534;2023-11-18T10:39:31;101688.25;;;16.12;41.42
33414;BME280;60055;41.884;12.534;2023-11-18T10:42:01;101685.47;;;16.15;43.41
33414;BME280;60055;41.884;12.534;2023-11-18T10:44:27;101685.38;;;16.36;43.95
33414;BME280;60055;41.884;12.534;2023-11-18T10:46:56;101679.97;;;16.58;42.70
33414;BME280;60055;41.884;12.534;2023-11-18T10:49:31;101671.50;;;16.69;41.51
33414;BME280;60055;41.884;12.534;2023-11-18T10:52:02;101676.38;;;16.78;39.75
33414;BME280;60055;41.884;12.534;2023-11-18T10:54:32;101669.44;;;16.55;38.40
33414;BME280;60055;41.884;12.534;2023-11-18T10:57:01;101671.56;;;16.47;40.35
33414;BME280;60055;41.884;12.534;2023-11-18T10:59:32;101677.25;;;16.78;42.01
33414;BME280;60055;41.884;12.534;2023-11-18T11:01:58;101674.50;;;16.80;38.85
33414;BME280;60055;41.884;12.534;2023-11-18T11:04:23;101669.59;;;17.08;43.56
33414;BME280;60055;41.884;12.534;2023-11-18T11:06:50;101673.44;;;17.03;38.75
33414;BME280;60055;41.884;12.534;2023-11-18T11:09:20;101673.06;;;16.73;37.01
33414;BME280;60055;41.884;12.534;2023-11-18T11:11:54;101679.09;;;16.76;36.51
33414;BME280;60055;41.884;12.534;2023-11-18T11:14:22;101673.06;;;16.73;35.52
33414;BME280;60055;41.884;12.534;2023-11-18T11:16:54;101677.59;;;16.71;35.32
33414;BME280;60055;41.884;12.534;2023-11-18T11:19:24;101677.53;;;16.72;35.38
33414;BME280;60055;41.884;12.534;2023-11-18T11:22:04;101670.91;;;16.81;34.38
33414;BME280;60055;41.884;12.534;2023-11-18T11:29:44;101665.69;;;16.97;33.85
33414;BME280;60055;41.884;12.534;2023-11-18T11:32:32;101659.66;;;17.12;31.50
33414;BME280;60055;41.884;12.534;2023-11-18T11:35:08;101656.91;;;17.13;30.56
33414;BME280;60055;41.884;12.534;2023-11-18T11:37:43;101653.03;;;17.02;31.08
33414;BME280;60055;41.884;12.534;2023-11-18T11:40:09;101655.53;;;17.23;30.87
33414;BME280;60055;41.884;12.534;2023-11-18T11:42:37;101648.31;;;17.25;31.94
33414;BME280;60055;41.884;12.534;2023-11-18T11:45:05;101653.19;;;17.34;30.61
33414;BME280;60055;41.884;12.534;2023-11-18T11:47:47;101645.47;;;17.28;29.65
33414;BME280;60055;41.884;12.534;2023-11-18T11:50:22;101664.03;;;17.49;33.42
33414;BME280;60055;41.884;12.534;2023-11-18T11:53:05;101660.50;;;17.67;35.49
33414;BME280;60055;41.884;12.534;2023-11-18T11:55:43;101653.91;;;17.57;31.19
33414;BME280;60055;41.884;12.534;2023-11-18T11:58:30;101660.09;;;17.57;31.60
33414;BME280;60055;41.884;12.534;2023-11-18T12:01:02;101662.84;;;17.56;28.66
33414;BME280;60055;41.884;12.534;2023-11-18T12:03:40;101655.78;;;17.72;29.96
33414;BME280;60055;41.884;12.534;2023-11-18T12:06:08;101656.41;;;17.60;27.92
33414;BME280;60055;41.884;12.534;2023-11-18T12:08:36;101658.59;;;17.69;27.33
33414;BME280;60055;41.884;12.534;2023-11-18T12:11:04;101653.25;;;17.69;27.36
33414;BME280;60055;41.884;12.534;2023-11-18T12:13:36;101660.78;;;17.61;26.36
33414;BME280;60055;41.884;12.534;2023-11-18T12:16:05;101654.50;;;17.62;26.44
33414;BME280;60055;41.884;12.534;2023-11-18T12:18:31;101649.19;;;17.79;26.57
33414;BME280;60055;41.884;12.534;2023-11-18T12:21:02;101647.41;;;17.44;28.80
33414;BME280;60055;41.884;12.534;2023-11-18T12:23:29;101652.72;;;17.79;29.74
33414;BME280;60055;41.884;12.534;2023-11-18T12:25:56;101647.44;;;17.78;29.97
33414;BME280;60055;41.884;12.534;2023-11-18T12:28:27;101647.53;;;17.76;30.98
33414;BME280;60055;41.884;12.534;2023-11-18T12:30:56;101638.47;;;17.62;31.34
33414;BME280;60055;41.884;12.534;2023-11-18T12:33:25;101645.56;;;17.63;31.46
33414;BME280;60055;41.884;12.534;2023-11-18T12:42:06;101648.47;;;17.75;28.32
33414;BME280;60055;41.884;12.534;2023-11-18T12:47:42;101665.13;;;17.63;25.54
33414;BME280;60055;41.884;12.534;2023-11-18T12:50:10;101663.94;;;17.69;26.03
33414;BME280;60055;41.884;12.534;2023-11-18T12:52:51;101663.03;;;17.51;28.04
33414;BME280;60055;41.884;12.534;2023-11-18T12:55:17;101667.59;;;17.49;27.30
33414;BME280;60055;41.884;12.534;2023-11-18T12:57:47;101672.81;;;17.69;29.48
33414;BME280;60055;41.884;12.534;2023-11-18T13:00:15;101671.91;;;17.52;28.65
33414;BME280;60055;41.884;12.534;2023-11-18T13:02:52;101683.47;;;17.52;27.70
33414;BME280;60055;41.884;12.534;2023-11-18T13:05:17;101675.09;;;17.41;27.42